Time;durP1;ratioP1;P1;durP2;ratioP2;P2;SDS_P1;SDS_P2;PMS_P1;PMS_P2;Temp;Humidity;BMP_temperature;BMP_pressure;BME280_temperature;BME280_humidity;BME280_pressure;Samples;Min_cycle;Max_cycle;Signal;HPM_P1;HPM_P2
2020/12/27 00:02:48;;;;;;;14.80;6.72;;;-5.10;99.90;;;;;;8358186;28;20074;-71
2020/12/27 00:06:49;;;;;;;13.25;5.88;;;-5.00;99.90;;;;;;8359790;28;20102;-71
2020/12/27 00:10:49;;;;;;;14.00;5.30;;;-5.10;99.90;;;;;;8359982;28;20590;-71
2020/12/27 00:14:50;;;;;;;12.98;5.75;;;-5.00;99.90;;;;;;8366263;28;20110;-71
2020/12/27 00:18:51;;;;;;;9.70;4.70;;;-5.00;99.90;;;;;;8365824;28;20025;-71
2020/12/27 00:22:51;;;;;;;8.82;4.93;;;-5.00;99.90;;;;;;8366201;28;20513;-71
2020/12/27 00:26:52;;;;;;;8.80;3.75;;;-5.00;99.90;;;;;;8364813;28;20041;-71
2020/12/27 00:30:53;;;;;;;9.60;4.70;;;-5.00;99.90;;;;;;8365724;28;20079;-71
2020/12/27 00:34:53;;;;;;;7.70;4.32;;;-5.00;99.90;;;;;;8365315;28;20036;-71
2020/12/27 00:38:54;;;;;;;8.15;3.90;;;-5.10;99.90;;;;;;8363874;28;20111;-72
2020/12/27 00:42:54;;;;;;;8.18;3.45;;;-5.20;99.90;;;;;;8364930;28;20421;-71
2020/12/27 00:46:55;;;;;;;6.15;2.63;;;-5.10;99.90;;;;;;8365042;28;20098;-71
2020/12/27 00:50:56;;;;;;;9.88;4.15;;;-5.10;99.90;;;;;;8364880;28;20021;-71
2020/12/27 00:54:56;;;;;;;7.88;3.78;;;-5.20;99.90;;;;;;8364987;28;20525;-71
2020/12/27 00:58:57;;;;;;;10.48;3.53;;;-5.30;99.90;;;;;;8364970;28;20021;-72
2020/12/27 01:02:57;;;;;;;6.07;3.45;;;-5.20;99.90;;;;;;8361233;28;20380;-71
2020/12/27 01:06:58;;;;;;;6.20;3.58;;;-5.30;99.90;;;;;;8330758;28;20033;-71
2020/12/27 01:11:03;;;;;;;6.57;3.90;;;-5.60;99.90;;;;;;8331483;28;20079;-71
2020/12/27 01:15:04;;;;;;;8.27;4.20;;;-5.60;99.90;;;;;;8331416;28;20053;-70
2020/12/27 01:19:04;;;;;;;5.97;4.00;;;-5.80;99.90;;;;;;8346567;28;20032;-71
2020/12/27 01:23:05;;;;;;;7.07;3.58;;;-5.70;99.90;;;;;;8362758;28;20404;-70
2020/12/27 01:27:06;;;;;;;7.60;3.53;;;-5.40;99.90;;;;;;8364152;28;20506;-72
2020/12/27 01:31:06;;;;;;;6.25;3.70;;;-5.50;99.90;;;;;;8363699;28;20083;-71
2020/12/27 01:35:07;;;;;;;5.43;2.97;;;-5.30;99.90;;;;;;8363192;28;20029;-71
2020/12/27 01:39:09;;;;;;;6.97;3.50;;;-5.20;99.90;;;;;;8362662;28;20063;-71
2020/12/27 01:43:09;;;;;;;4.93;2.85;;;-5.20;99.90;;;;;;8362201;28;20548;-70
2020/12/27 01:47:22;;;;;;;3.90;2.40;;;-5.20;99.90;;;;;;8362070;28;20056;-71
2020/12/27 01:51:22;;;;;;;7.55;3.17;;;-5.00;99.90;;;;;;8363164;28;20029;-71
2020/12/27 01:55:23;;;;;;;5.20;2.95;;;-4.80;99.90;;;;;;8361899;28;20561;-71
2020/12/27 01:59:28;;;;;;;6.45;3.47;;;-4.70;99.90;;;;;;8363046;28;20040;-70
2020/12/27 02:03:28;;;;;;;6.95;3.60;;;-4.70;99.90;;;;;;8362563;28;20029;-71
2020/12/27 02:07:29;;;;;;;6.70;3.10;;;-4.60;99.90;;;;;;8362629;28;20099;-71
2020/12/27 02:11:30;;;;;;;5.65;3.35;;;-4.60;99.90;;;;;;8361292;28;20032;-71
2020/12/27 02:15:30;;;;;;;4.60;2.50;;;-4.50;99.90;;;;;;8361211;28;20029;-71
2020/12/27 02:19:31;;;;;;;4.13;2.42;;;-4.50;99.90;;;;;;8360842;28;20399;-70
2020/12/27 02:23:32;;;;;;;6.10;2.92;;;-4.40;99.90;;;;;;8362147;28;20104;-71
2020/12/27 02:27:33;;;;;;;4.75;2.78;;;-4.40;99.90;;;;;;8360982;28;20036;-71
2020/12/27 02:31:34;;;;;;;5.03;2.83;;;-4.30;99.90;;;;;;8377033;28;20036;-71
2020/12/27 02:35:34;;;;;;;4.07;2.47;;;-4.30;99.90;;;;;;8361260;28;20036;-71
2020/12/27 02:39:35;;;;;;;4.20;2.47;;;-4.30;99.90;;;;;;8361095;28;20029;-70
2020/12/27 02:43:35;;;;;;;4.20;2.83;;;-4.30;99.90;;;;;;8361256;28;20112;-70
2020/12/27 02:47:39;;;;;;;4.07;2.70;;;-4.20;99.90;;;;;;8361256;28;20506;-70
2020/12/27 02:51:40;;;;;;;6.15;2.88;;;-4.30;99.90;;;;;;8361388;28;20517;-71
2020/12/27 02:55:40;;;;;;;6.32;3.30;;;-4.30;99.90;;;;;;8359649;28;20029;-71
2020/12/27 02:59:41;;;;;;;7.68;3.25;;;-4.20;99.90;;;;;;8360862;28;20394;-71
2020/12/27 03:03:42;;;;;;;4.43;2.47;;;-4.50;99.90;;;;;;8352807;28;20132;-71
2020/12/27 03:07:42;;;;;;;4.53;2.67;;;-4.80;99.90;;;;;;8328181;28;20035;-71
2020/12/27 03:11:43;;;;;;;4.90;3.05;;;-4.80;99.90;;;;;;8327578;28;20480;-71
2020/12/27 03:15:44;;;;;;;5.47;2.80;;;-4.80;99.90;;;;;;8327779;28;20021;-71
2020/12/27 03:19:44;;;;;;;5.68;2.67;;;-4.90;99.90;;;;;;8327646;28;20026;-70
2020/12/27 03:23:45;;;;;;;4.70;2.53;;;-4.80;99.90;;;;;;8326606;28;20026;-72
2020/12/27 03:27:45;;;;;;;5.32;2.65;;;-4.70;99.90;;;;;;8327631;28;20022;-71
2020/12/27 03:31:46;;;;;;;3.92;2.55;;;-4.90;99.90;;;;;;8327256;28;20026;-71
2020/12/27 03:35:46;;;;;;;7.28;3.03;;;-5.00;99.90;;;;;;8352033;28;20021;-71
2020/12/27 03:39:47;;;;;;;6.93;2.97;;;-5.10;99.90;;;;;;8358823;28;20506;-71
2020/12/27 03:43:47;;;;;;;4.25;2.80;;;-5.20;99.90;;;;;;8358915;28;20104;-71
2020/12/27 03:47:48;;;;;;;9.75;3.38;;;-5.30;99.90;;;;;;8358850;28;20036;-71
2020/12/27 03:51:48;;;;;;;8.20;3.53;;;-5.40;99.90;;;;;;8359681;28;20029;-71
2020/12/27 03:55:49;;;;;;;6.15;3.13;;;-5.40;99.90;;;;;;8359855;28;20765;-71
2020/12/27 03:59:50;;;;;;;6.07;3.50;;;-5.40;99.90;;;;;;8359280;28;20087;-71
2020/12/27 04:03:50;;;;;;;6.47;3.03;;;-5.30;99.90;;;;;;8359225;28;20021;-71
2020/12/27 04:07:51;;;;;;;6.97;3.40;;;-5.30;99.90;;;;;;8359842;28;20032;-71
2020/12/27 04:11:51;;;;;;;12.93;4.50;;;-5.30;99.90;;;;;;8358351;28;20021;-71
2020/12/27 04:15:52;;;;;;;8.15;3.50;;;-5.40;99.90;;;;;;8359634;28;20035;-72
2020/12/27 04:19:52;;;;;;;8.70;3.33;;;-5.40;99.90;;;;;;8357955;28;20056;-71
2020/12/27 04:23:53;;;;;;;6.43;3.35;;;-5.50;99.90;;;;;;8359453;28;20036;-71
2020/12/27 04:27:53;;;;;;;7.53;3.17;;;-5.60;99.90;;;;;;8359522;28;20037;-71
2020/12/27 04:31:53;;;;;;;6.70;3.13;;;-5.60;99.90;;;;;;8359595;28;20025;-71
2020/12/27 04:35:54;;;;;;;4.40;2.72;;;-5.60;99.90;;;;;;8358700;28;20029;-71
2020/12/27 04:39:56;;;;;;;5.32;3.35;;;-5.60;99.90;;;;;;8359133;28;20096;-71
2020/12/27 04:43:57;;;;;;;7.45;3.30;;;-5.60;99.90;;;;;;8357314;28;20032;-71
2020/12/27 04:47:58;;;;;;;6.53;2.60;;;-5.50;99.90;;;;;;8357779;28;20025;-71
2020/12/27 04:52:02;;;;;;;4.60;3.00;;;-5.50;99.90;;;;;;8358996;28;20118;-71
2020/12/27 04:56:04;;;;;;;9.43;4.28;;;-5.50;99.90;;;;;;8358925;28;20040;-71
2020/12/27 05:00:06;;;;;;;7.85;3.80;;;-5.40;99.90;;;;;;8362662;28;20017;-71
2020/12/27 05:04:07;;;;;;;7.03;3.15;;;-5.30;99.90;;;;;;8363231;28;20025;-71
2020/12/27 05:08:07;;;;;;;8.63;3.30;;;-5.20;99.90;;;;;;8364937;28;20090;-70
2020/12/27 05:12:10;;;;;;;5.97;3.00;;;-5.30;99.90;;;;;;8363212;28;20035;-72
2020/12/27 05:16:11;;;;;;;5.43;2.88;;;-5.30;99.90;;;;;;8363570;28;20047;-71
2020/12/27 05:20:16;;;;;;;8.20;2.75;;;-5.30;99.90;;;;;;8364087;28;20021;-71
2020/12/27 05:24:18;;;;;;;4.65;2.55;;;-5.40;99.90;;;;;;8363979;28;20017;-71
2020/12/27 05:28:19;;;;;;;4.15;2.55;;;-5.50;99.90;;;;;;8363995;28;20067;-71
2020/12/27 05:32:20;;;;;;;5.50;3.10;;;-5.40;99.90;;;;;;8363205;28;20037;-71
2020/12/27 05:36:21;;;;;;;5.93;3.25;;;-5.50;99.90;;;;;;8359782;28;20025;-72
2020/12/27 05:40:22;;;;;;;6.53;3.22;;;-5.50;99.90;;;;;;8353457;28;20685;-71
2020/12/27 05:44:22;;;;;;;10.25;3.63;;;-5.40;99.90;;;;;;8361274;28;20021;-71
2020/12/27 05:48:24;;;;;;;6.57;3.80;;;-5.40;99.90;;;;;;8362956;28;20029;-71
2020/12/27 05:52:35;;;;;;;6.25;3.92;;;-5.40;99.90;;;;;;8363228;28;20360;-71
2020/12/27 05:56:41;;;;;;;7.05;3.78;;;-5.40;99.90;;;;;;8363270;28;20036;-71
2020/12/27 06:00:41;;;;;;;7.00;3.50;;;-5.10;99.90;;;;;;8362989;28;20036;-71
2020/12/27 06:05:11;;;;;;;4.13;2.50;;;-5.20;99.90;;;;;;8362283;28;20025;-71
2020/12/27 06:09:36;;;;;;;5.60;3.10;;;-5.10;99.90;;;;;;8360744;28;20020;-71
2020/12/27 06:13:49;;;;;;;7.38;3.17;;;-5.10;99.90;;;;;;8362709;28;20028;-71
2020/12/27 06:17:52;;;;;;;6.57;3.10;;;-4.90;99.90;;;;;;8362502;28;20110;-71
2020/12/27 06:22:04;;;;;;;5.75;3.25;;;-5.00;99.90;;;;;;8362213;28;20021;-71
2020/12/27 06:26:06;;;;;;;7.35;3.00;;;-5.00;99.90;;;;;;8361034;28;20063;-71
2020/12/27 06:30:15;;;;;;;5.38;3.22;;;-5.00;99.90;;;;;;8360367;28;20025;-71
2020/12/27 06:34:17;;;;;;;5.70;3.45;;;-5.10;99.90;;;;;;8354928;28;20029;-71
2020/12/27 06:38:20;;;;;;;7.88;3.53;;;-5.30;99.90;;;;;;8360924;28;20537;-71
2020/12/27 06:42:29;;;;;;;6.90;3.40;;;-5.50;99.90;;;;;;8356588;28;20032;-70
2020/12/27 06:46:30;;;;;;;6.28;3.53;;;-5.20;99.90;;;;;;8359063;28;20052;-71
2020/12/27 06:50:31;;;;;;;6.68;3.05;;;-5.10;99.90;;;;;;8357501;28;20025;-72
2020/12/27 06:54:47;;;;;;;9.23;4.50;;;-5.20;99.90;;;;;;8360313;28;20100;-71
2020/12/27 06:59:04;;;;;;;4.80;2.95;;;-5.00;99.90;;;;;;8356135;28;20013;-70
2020/12/27 07:03:21;;;;;;;6.38;3.38;;;-4.90;99.90;;;;;;8357743;28;20024;-71
2020/12/27 07:07:45;;;;;;;10.90;2.85;;;-4.90;99.90;;;;;;8358028;28;20056;-71
2020/12/27 07:11:47;;;;;;;6.22;3.50;;;-4.80;99.90;;;;;;8356115;28;20475;-72
2020/12/27 07:15:59;;;;;;;6.72;3.47;;;-4.90;99.90;;;;;;8360149;28;20364;-71
2020/12/27 07:20:01;;;;;;;8.18;3.58;;;-4.80;99.90;;;;;;8357434;28;20031;-71
2020/12/27 07:24:08;;;;;;;10.57;3.90;;;-5.00;99.90;;;;;;8359925;28;20509;-72
2020/12/27 07:28:10;;;;;;;17.67;9.45;;;-4.80;99.90;;;;;;8359822;28;20021;-71
2020/12/27 07:32:13;;;;;;;8.38;4.50;;;-4.50;99.90;;;;;;8358959;28;20112;-71
2020/12/27 07:36:14;;;;;;;5.50;2.63;;;-4.20;99.90;;;;;;8358085;28;20056;-71
2020/12/27 07:40:14;;;;;;;7.43;3.20;;;-4.00;99.90;;;;;;8349503;28;20036;-71
2020/12/27 07:44:17;;;;;;;4.82;2.92;;;-3.70;99.90;;;;;;8358479;28;20029;-71
2020/12/27 07:48:17;;;;;;;5.55;2.80;;;-3.50;99.90;;;;;;8359406;28;20037;-71
2020/12/27 07:52:18;;;;;;;5.90;2.88;;;-3.40;99.90;;;;;;8358756;28;20412;-71
2020/12/27 07:56:23;;;;;;;6.82;3.50;;;-3.40;99.90;;;;;;8358642;28;20032;-71
2020/12/27 08:00:26;;;;;;;12.02;6.07;;;-3.30;99.90;;;;;;8359679;28;20096;-71
2020/12/27 08:04:27;;;;;;;14.38;6.60;;;-3.10;99.90;;;;;;8344315;28;20029;-71
2020/12/27 08:08:27;;;;;;;17.25;5.95;;;-2.90;99.90;;;;;;8325535;28;20030;-72
2020/12/27 08:12:28;;;;;;;12.77;5.50;;;-3.00;99.90;;;;;;8326806;28;20565;-72
2020/12/27 08:16:29;;;;;;;8.68;4.32;;;-3.00;99.90;;;;;;8325445;28;20021;-71
2020/12/27 08:20:32;;;;;;;11.75;5.40;;;-2.90;99.90;;;;;;8353434;28;20086;-71
2020/12/27 08:24:33;;;;;;;16.90;8.00;;;-2.70;99.90;;;;;;8358201;28;20029;-71
2020/12/27 08:28:35;;;;;;;13.57;7.32;;;-2.40;99.90;;;;;;8359371;28;20025;-71
2020/12/27 08:32:36;;;;;;;17.98;6.53;;;-2.40;99.90;;;;;;8360740;28;20021;-71
2020/12/27 08:36:39;;;;;;;5.07;2.72;;;-2.20;99.90;;;;;;8365303;28;20112;-71
2020/12/27 08:40:43;;;;;;;7.15;3.70;;;-1.90;99.90;;;;;;8364169;28;20021;-71
2020/12/27 08:44:58;;;;;;;7.40;3.80;;;-1.80;99.90;;;;;;8365010;28;20037;-71
2020/12/27 08:49:22;;;;;;;6.05;3.63;;;-1.50;99.90;;;;;;8355499;28;20107;-71
2020/12/27 08:53:24;;;;;;;6.40;2.63;;;-1.40;99.90;;;;;;8360931;28;20067;-70
2020/12/27 08:57:25;;;;;;;5.38;3.30;;;-1.20;99.90;;;;;;8362805;28;20021;-71
2020/12/27 09:01:26;;;;;;;3.20;2.00;;;-1.20;99.90;;;;;;8356031;28;20097;-71
2020/12/27 09:05:28;;;;;;;4.30;3.05;;;-0.90;99.90;;;;;;8355273;28;20036;-71
2020/12/27 09:09:29;;;;;;;4.80;2.60;;;-0.80;99.90;;;;;;8363738;28;20032;-72
2020/12/27 09:13:39;;;;;;;2.58;1.88;;;-0.80;99.90;;;;;;8362574;28;20052;-71
2020/12/27 09:17:41;;;;;;;2.70;1.88;;;-0.90;99.90;;;;;;8364008;28;20616;-71
2020/12/27 09:21:42;;;;;;;3.45;2.13;;;-0.90;99.90;;;;;;8356371;28;20040;-71
2020/12/27 09:25:44;;;;;;;3.55;2.38;;;-0.80;99.90;;;;;;8361837;28;20388;-70
2020/12/27 09:30:01;;;;;;;14.32;7.45;;;-0.70;99.90;;;;;;8362741;28;20028;-72
2020/12/27 09:34:01;;;;;;;3.13;1.67;;;-0.60;99.90;;;;;;8350104;28;20032;-70
2020/12/27 09:38:03;;;;;;;3.40;1.85;;;-0.40;99.90;;;;;;8363419;28;20093;-70
2020/12/27 09:42:03;;;;;;;5.68;2.75;;;-0.40;99.90;;;;;;8362224;28;20782;-70
2020/12/27 09:46:04;;;;;;;1.80;1.13;;;-0.40;99.90;;;;;;8359414;28;20083;-70
2020/12/27 09:50:07;;;;;;;4.40;2.40;;;-0.20;99.90;;;;;;8362136;28;20029;-71
2020/12/27 09:54:08;;;;;;;8.55;4.00;;;-0.20;99.90;;;;;;8359661;28;20094;-70
2020/12/27 09:58:12;;;;;;;5.55;3.72;;;-0.20;99.90;;;;;;8361953;28;20043;-71
2020/12/27 10:02:13;;;;;;;6.03;2.90;;;0.00;99.90;;;;;;8359345;28;20075;-70
2020/12/27 10:06:17;;;;;;;5.03;2.60;;;0.20;99.90;;;;;;8357910;28;20057;-70
2020/12/27 10:10:18;;;;;;;4.68;2.47;;;0.20;99.90;;;;;;8360472;28;20025;-71
2020/12/27 10:14:19;;;;;;;2.28;1.90;;;0.30;99.90;;;;;;8359795;28;20502;-70
2020/12/27 10:18:19;;;;;;;10.15;7.28;;;0.50;99.90;;;;;;8359766;28;20021;-70
2020/12/27 10:22:20;;;;;;;2.58;2.03;;;0.40;99.90;;;;;;8360910;28;20017;-70
2020/12/27 10:26:22;;;;;;;5.18;3.40;;;0.60;99.90;;;;;;8354862;28;20025;-70
2020/12/27 10:30:22;;;;;;;4.70;2.92;;;0.70;99.90;;;;;;8354108;28;20543;-71
2020/12/27 10:34:23;;;;;;;4.65;2.70;;;1.00;99.90;;;;;;8360506;28;20036;-70
2020/12/27 10:38:24;;;;;;;7.97;3.30;;;0.90;99.90;;;;;;8360271;28;20159;-71
2020/12/27 10:42:24;;;;;;;4.07;2.67;;;1.00;99.90;;;;;;8361204;28;20059;-71
2020/12/27 10:46:25;;;;;;;4.15;2.65;;;0.90;99.90;;;;;;8360185;28;20025;-71
2020/12/27 10:50:26;;;;;;;4.88;2.83;;;1.10;99.90;;;;;;8359444;28;20707;-71
2020/12/27 10:54:26;;;;;;;46.80;19.08;;;1.30;99.90;;;;;;8361172;28;20031;-71
2020/12/27 10:58:27;;;;;;;5.07;3.58;;;1.60;99.90;;;;;;8359757;28;20095;-71
2020/12/27 11:02:27;;;;;;;4.90;2.67;;;1.80;99.90;;;;;;8345802;28;20047;-72
2020/12/27 11:06:32;;;;;;;4.20;2.72;;;2.30;99.90;;;;;;8356875;28;20036;-71
2020/12/27 11:10:34;;;;;;;2.70;2.13;;;2.30;99.90;;;;;;8355784;28;20033;-71
2020/12/27 11:14:34;;;;;;;9.70;6.72;;;2.50;99.90;;;;;;8356560;28;20412;-71
2020/12/27 11:18:35;;;;;;;3.90;2.40;;;2.60;99.90;;;;;;8335254;28;20106;-71
2020/12/27 11:22:36;;;;;;;4.22;2.08;;;2.70;99.90;;;;;;8340248;28;20094;-71
2020/12/27 11:26:37;;;;;;;5.25;2.80;;;2.80;99.90;;;;;;8348856;28;20051;-70
2020/12/27 11:30:38;;;;;;;12.52;7.07;;;2.70;99.90;;;;;;8349034;28;20025;-70
2020/12/27 11:34:39;;;;;;;5.25;3.50;;;2.60;99.90;;;;;;8354300;28;20115;-71
2020/12/27 11:38:40;;;;;;;3.80;2.22;;;2.40;99.90;;;;;;8355730;28;20025;-70
2020/12/27 11:42:40;;;;;;;7.22;3.30;;;2.30;99.90;;;;;;8346174;28;20033;-71
2020/12/27 11:46:41;;;;;;;5.22;2.88;;;2.10;99.90;;;;;;8356334;28;20032;-70
2020/12/27 11:50:42;;;;;;;2.92;2.08;;;1.90;99.90;;;;;;8355736;28;20043;-70
2020/12/27 11:54:43;;;;;;;3.05;2.25;;;1.90;99.90;;;;;;8336862;28;20028;-70
2020/12/27 11:58:43;;;;;;;3.83;2.00;;;1.80;99.90;;;;;;8342213;28;20031;-71
2020/12/27 12:02:44;;;;;;;2.15;1.55;;;1.60;99.90;;;;;;8354211;28;20113;-72
2020/12/27 12:06:44;;;;;;;1.65;1.25;;;1.50;99.90;;;;;;8355185;28;20507;-70
2020/12/27 12:10:45;;;;;;;1.80;1.50;;;1.40;99.90;;;;;;8362469;28;20035;-71
2020/12/27 12:14:46;;;;;;;2.58;1.40;;;1.40;99.90;;;;;;8362988;28;20448;-71
2020/12/27 12:18:48;;;;;;;2.35;1.60;;;1.30;99.90;;;;;;8364928;28;20032;-71
2020/12/27 12:22:48;;;;;;;3.65;2.50;;;1.40;99.90;;;;;;8365112;28;20072;-71
2020/12/27 12:26:49;;;;;;;1.63;1.30;;;1.50;99.90;;;;;;8363790;28;20040;-71
2020/12/27 12:30:50;;;;;;;2.17;1.30;;;1.50;99.90;;;;;;8364256;28;20025;-71
2020/12/27 12:34:50;;;;;;;2.67;1.88;;;1.50;99.90;;;;;;8362144;28;20239;-71
2020/12/27 12:38:51;;;;;;;2.15;1.60;;;1.50;99.90;;;;;;8363988;28;20044;-71
2020/12/27 12:42:52;;;;;;;3.17;1.58;;;1.60;99.90;;;;;;8363667;28;20029;-72
2020/12/27 12:46:53;;;;;;;2.45;1.80;;;1.80;99.90;;;;;;8364093;28;20619;-72
2020/12/27 12:50:53;;;;;;;3.08;1.65;;;2.10;99.90;;;;;;8361677;28;20024;-71
2020/12/27 12:54:54;;;;;;;5.72;3.70;;;2.40;99.90;;;;;;8363823;28;20021;-71
2020/12/27 12:58:54;;;;;;;16.45;12.30;;;2.50;99.90;;;;;;8361852;28;20040;-71
2020/12/27 13:02:55;;;;;;;15.50;10.75;;;2.60;99.90;;;;;;8361579;28;20031;-72
2020/12/27 13:06:55;;;;;;;22.45;11.23;;;2.60;99.90;;;;;;8360822;28;20112;-71
2020/12/27 13:10:56;;;;;;;30.60;14.70;;;2.50;99.90;;;;;;8363488;28;20066;-71
2020/12/27 13:14:57;;;;;;;11.30;2.58;;;2.60;99.90;;;;;;8362493;28;20025;-70
2020/12/27 13:18:58;;;;;;;6.55;1.88;;;2.80;99.90;;;;;;8363223;28;20032;-73
2020/12/27 13:22:58;;;;;;;3.67;2.33;;;2.60;99.90;;;;;;8357490;28;20368;-71
2020/12/27 13:27:00;;;;;;;10.55;4.82;;;2.50;99.90;;;;;;8363514;28;20029;-71
2020/12/27 13:31:00;;;;;;;8.18;3.90;;;2.50;99.90;;;;;;8361097;28;20025;-71
2020/12/27 13:35:01;;;;;;;8.70;5.00;;;2.50;99.90;;;;;;8356244;28;20025;-71
2020/12/27 13:39:02;;;;;;;6.63;4.25;;;2.50;99.90;;;;;;8361217;28;20094;-72
2020/12/27 13:43:02;;;;;;;4.05;2.40;;;2.50;99.90;;;;;;8358473;28;20028;-71
2020/12/27 13:47:05;;;;;;;5.00;2.80;;;2.40;99.90;;;;;;8344920;28;20025;-71
2020/12/27 13:51:05;;;;;;;7.68;4.40;;;2.10;99.90;;;;;;8362034;28;20458;-71
2020/12/27 13:55:06;;;;;;;8.77;3.35;;;2.10;99.90;;;;;;8362771;28;20037;-71
2020/12/27 13:59:06;;;;;;;15.52;7.35;;;1.90;99.90;;;;;;8362178;28;20025;-71
2020/12/27 14:03:07;;;;;;;16.70;7.85;;;1.80;99.90;;;;;;8360453;28;20037;-71
2020/12/27 14:07:08;;;;;;;13.25;5.05;;;1.70;99.90;;;;;;8363025;28;20025;-70
2020/12/27 14:11:11;;;;;;;12.88;6.50;;;1.60;99.90;;;;;;8358741;28;20410;-71
2020/12/27 14:15:12;;;;;;;7.22;2.40;;;1.50;99.90;;;;;;8361661;28;20085;-70
2020/12/27 14:19:13;;;;;;;5.82;3.22;;;1.40;99.90;;;;;;8362187;28;20021;-71
2020/12/27 14:23:14;;;;;;;3.00;2.00;;;1.30;99.90;;;;;;8360466;28;20434;-70
2020/12/27 14:27:14;;;;;;;9.70;4.80;;;1.30;99.90;;;;;;8361720;28;20028;-71
2020/12/27 14:31:15;;;;;;;8.98;4.05;;;1.20;99.90;;;;;;8359716;28;20127;-71
2020/12/27 14:35:16;;;;;;;6.95;3.10;;;1.20;99.90;;;;;;8369692;28;20628;-71
2020/12/27 14:39:16;;;;;;;5.75;2.60;;;1.20;99.90;;;;;;8360890;28;20446;-71
2020/12/27 14:43:17;;;;;;;7.80;3.10;;;1.10;99.90;;;;;;8359261;28;20028;-71
2020/12/27 14:47:17;;;;;;;7.22;3.30;;;1.10;99.90;;;;;;8360288;28;20028;-72
2020/12/27 14:51:22;;;;;;;10.68;5.10;;;0.90;99.90;;;;;;8359388;28;20057;-70
2020/12/27 14:55:26;;;;;;;12.95;7.18;;;0.80;99.90;;;;;;8354051;28;20020;-71
2020/12/27 14:59:26;;;;;;;12.45;7.13;;;0.60;99.90;;;;;;8358778;28;20025;-71
2020/12/27 15:03:27;;;;;;;3.72;1.40;;;0.60;99.90;;;;;;8350027;28;20028;-71
2020/12/27 15:07:27;;;;;;;4.97;2.50;;;0.70;99.90;;;;;;8358063;28;20113;-71
2020/12/27 15:11:28;;;;;;;8.20;2.20;;;0.60;99.90;;;;;;8358022;28;20036;-71
2020/12/27 15:15:29;;;;;;;4.80;2.40;;;0.50;99.90;;;;;;8355688;28;20029;-71
2020/12/27 15:19:29;;;;;;;12.32;7.20;;;0.50;99.90;;;;;;8353501;28;20035;-72
2020/12/27 15:23:30;;;;;;;11.93;5.68;;;0.40;99.90;;;;;;8356949;28;20078;-71
2020/12/27 15:27:31;;;;;;;8.43;4.55;;;0.60;99.90;;;;;;8358501;28;20083;-71
2020/12/27 15:31:31;;;;;;;18.45;8.27;;;0.50;99.90;;;;;;8358844;28;20028;-70
2020/12/27 15:35:32;;;;;;;12.00;6.93;;;0.40;99.90;;;;;;8350020;28;20490;-71
2020/12/27 15:39:33;;;;;;;9.40;5.70;;;0.30;99.90;;;;;;8349604;28;20064;-71
2020/12/27 15:43:34;;;;;;;5.35;3.72;;;0.30;99.90;;;;;;8343120;28;20482;-71
2020/12/27 15:47:34;;;;;;;6.60;4.50;;;0.30;99.90;;;;;;8354010;28;20021;-71
2020/12/27 15:51:35;;;;;;;11.68;3.70;;;0.30;99.90;;;;;;8357130;28;20496;-71
2020/12/27 15:55:36;;;;;;;5.38;3.45;;;0.30;99.90;;;;;;8356923;28;20028;-71
2020/12/27 15:59:36;;;;;;;14.95;9.50;;;0.50;99.90;;;;;;8357252;28;20021;-71
2020/12/27 16:03:37;;;;;;;15.90;9.90;;;0.40;99.90;;;;;;8357190;28;20039;-72
2020/12/27 16:07:40;;;;;;;8.02;2.97;;;0.30;99.90;;;;;;8356729;28;20041;-72
2020/12/27 16:11:42;;;;;;;4.15;1.83;;;0.20;99.90;;;;;;8355183;28;20112;-71
2020/12/27 16:15:42;;;;;;;4.78;3.20;;;0.10;99.90;;;;;;8353046;28;20423;-71
2020/12/27 16:19:43;;;;;;;7.43;4.88;;;-0.10;99.90;;;;;;8356545;28;20064;-71
2020/12/27 16:23:45;;;;;;;17.33;8.10;;;-0.20;99.90;;;;;;8355351;28;20613;-72
2020/12/27 16:27:46;;;;;;;26.20;10.60;;;-0.10;99.90;;;;;;8350982;28;20743;-70
2020/12/27 16:31:47;;;;;;;37.05;14.27;;;-0.20;99.90;;;;;;8351145;28;20115;-70
2020/12/27 16:35:47;;;;;;;24.27;11.60;;;-0.10;99.90;;;;;;8346405;28;20060;-71
2020/12/27 16:39:48;;;;;;;11.13;5.57;;;-0.20;99.90;;;;;;8351467;28;20049;-70
2020/12/27 16:43:49;;;;;;;12.68;6.80;;;-0.10;99.90;;;;;;8348410;28;20033;-72
2020/12/27 16:47:50;;;;;;;10.25;5.13;;;-0.10;99.90;;;;;;8351320;28;20036;-72
2020/12/27 16:51:54;;;;;;;7.65;3.58;;;-0.10;99.90;;;;;;8350420;28;20071;-71
2020/12/27 16:55:54;;;;;;;10.65;5.20;;;-0.30;99.90;;;;;;8356289;28;20029;-70
2020/12/27 16:59:55;;;;;;;16.02;6.68;;;-0.50;99.90;;;;;;8357643;28;20548;-71
2020/12/27 17:03:56;;;;;;;27.75;13.65;;;-0.70;99.90;;;;;;8353891;28;20063;-70
2020/12/27 17:07:56;;;;;;;18.25;9.77;;;-0.50;99.90;;;;;;8358894;28;20033;-70
2020/12/27 17:12:01;;;;;;;10.55;5.20;;;-0.40;99.90;;;;;;8352748;28;20033;-70
2020/12/27 17:16:01;;;;;;;8.55;4.93;;;-0.30;99.90;;;;;;8356500;28;20410;-70
2020/12/27 17:20:03;;;;;;;4.05;1.83;;;-0.30;99.90;;;;;;8359341;28;20020;-71
2020/12/27 17:24:06;;;;;;;5.60;2.45;;;-0.20;99.90;;;;;;8359302;28;20491;-71
2020/12/27 17:28:07;;;;;;;10.57;6.15;;;-0.10;99.90;;;;;;8348919;28;20028;-71
2020/12/27 17:32:07;;;;;;;7.28;4.30;;;-0.30;99.90;;;;;;8349971;28;20179;-70
2020/12/27 17:36:08;;;;;;;7.38;3.97;;;-0.50;99.90;;;;;;8356973;28;20721;-70
2020/12/27 17:40:12;;;;;;;9.57;4.90;;;-0.60;99.90;;;;;;8355532;28;20112;-70
2020/12/27 17:44:12;;;;;;;10.43;5.70;;;-0.40;99.90;;;;;;8357541;28;20040;-70
2020/12/27 17:48:13;;;;;;;10.65;5.15;;;-0.50;99.90;;;;;;8355400;28;20025;-70
2020/12/27 17:52:16;;;;;;;15.43;7.28;;;-0.40;99.90;;;;;;8356160;28;20021;-71
2020/12/27 17:56:18;;;;;;;10.70;5.32;;;-0.30;99.90;;;;;;8356991;28;20040;-70
2020/12/27 18:00:19;;;;;;;10.57;4.72;;;-0.30;99.90;;;;;;8348167;28;20029;-69
2020/12/27 18:04:20;;;;;;;11.88;6.80;;;-0.20;99.90;;;;;;8351877;28;20495;-69
2020/12/27 18:08:21;;;;;;;10.55;4.93;;;-0.20;99.90;;;;;;8341786;28;20135;-69
2020/12/27 18:12:21;;;;;;;10.13;5.22;;;-0.10;99.90;;;;;;8330972;28;20025;-69
2020/12/27 18:16:22;;;;;;;14.18;7.03;;;-0.10;99.90;;;;;;8349883;28;20638;-70
2020/12/27 18:20:22;;;;;;;9.30;4.78;;;-0.20;99.90;;;;;;8349461;28;20036;-70
2020/12/27 18:24:23;;;;;;;7.22;3.88;;;-0.10;99.90;;;;;;8353259;28;20067;-70
2020/12/27 18:28:24;;;;;;;7.50;3.85;;;0.10;99.90;;;;;;8353777;28;20553;-70
2020/12/27 18:32:24;;;;;;;10.95;6.25;;;-0.20;99.90;;;;;;8353126;28;20033;-70
2020/12/27 18:36:27;;;;;;;13.15;6.63;;;-0.20;99.90;;;;;;8350998;28;20037;-70
2020/12/27 18:40:28;;;;;;;11.27;6.40;;;-0.20;99.90;;;;;;8352128;28;20021;-70
2020/12/27 18:44:28;;;;;;;12.00;6.65;;;-0.40;99.90;;;;;;8352760;28;20029;-70
2020/12/27 18:48:29;;;;;;;13.85;7.15;;;-0.20;99.90;;;;;;8352765;28;20108;-71
2020/12/27 18:52:30;;;;;;;11.18;5.50;;;-0.10;99.90;;;;;;8354398;28;20032;-70
2020/12/27 18:56:31;;;;;;;13.60;6.15;;;-0.20;99.90;;;;;;8344185;28;21746;-71
2020/12/27 19:00:31;;;;;;;12.18;5.70;;;0.00;99.90;;;;;;8350931;28;20112;-70
2020/12/27 19:04:32;;;;;;;12.00;5.00;;;0.00;99.90;;;;;;8351760;28;20028;-70
2020/12/27 19:08:33;;;;;;;7.03;3.42;;;-0.10;99.90;;;;;;8336961;28;20029;-69
2020/12/27 19:12:33;;;;;;;6.43;3.35;;;-0.10;99.90;;;;;;8351278;28;20035;-69
2020/12/27 19:16:35;;;;;;;7.22;3.17;;;-0.20;99.90;;;;;;8351379;28;20082;-70
2020/12/27 19:20:36;;;;;;;5.43;2.85;;;-0.10;99.90;;;;;;8348196;28;20035;-70
2020/12/27 19:24:36;;;;;;;5.60;2.75;;;-0.20;99.90;;;;;;8350126;28;20025;-69
2020/12/27 19:28:37;;;;;;;7.20;3.78;;;-0.10;99.90;;;;;;8352445;28;20032;-70
2020/12/27 19:32:38;;;;;;;5.70;3.00;;;0.00;99.90;;;;;;8349173;28;20506;-70
2020/12/27 19:36:39;;;;;;;6.32;3.60;;;0.10;99.90;;;;;;8351362;28;20031;-69
2020/12/27 19:40:40;;;;;;;10.18;4.97;;;0.10;99.90;;;;;;8347257;28;20169;-69
2020/12/27 19:44:40;;;;;;;10.18;4.88;;;0.20;99.90;;;;;;8351700;28;20033;-70
2020/12/27 19:48:41;;;;;;;16.10;5.43;;;0.00;99.90;;;;;;8352023;28;20055;-69
2020/12/27 19:52:42;;;;;;;10.63;5.53;;;-0.20;99.90;;;;;;8343389;28;20037;-69
2020/12/27 19:56:42;;;;;;;12.82;6.43;;;-0.10;99.90;;;;;;8353288;28;20449;-70
2020/12/27 20:00:43;;;;;;;15.57;7.03;;;-0.20;99.90;;;;;;8354053;28;20517;-70
2020/12/27 20:04:44;;;;;;;13.05;6.72;;;-0.10;99.90;;;;;;8353571;28;20025;-70
2020/12/27 20:08:45;;;;;;;14.68;7.05;;;-0.10;99.90;;;;;;8351949;28;20021;-70
2020/12/27 20:12:45;;;;;;;15.15;7.10;;;-0.20;99.90;;;;;;8339854;28;20418;-72
2020/12/27 20:16:46;;;;;;;15.32;8.30;;;-0.20;99.90;;;;;;8353149;28;20067;-71
2020/12/27 20:20:46;;;;;;;19.52;8.65;;;-0.20;99.90;;;;;;8352124;28;20112;-69
2020/12/27 20:24:47;;;;;;;17.15;8.27;;;0.00;99.90;;;;;;8349734;28;20029;-69
2020/12/27 20:28:48;;;;;;;13.45;6.28;;;-0.10;99.90;;;;;;8353644;28;20422;-70
2020/12/27 20:32:49;;;;;;;16.42;8.43;;;0.00;99.90;;;;;;8358911;28;20490;-69
2020/12/27 20:36:50;;;;;;;19.88;9.35;;;-0.10;99.90;;;;;;8359679;28;20056;-69
2020/12/27 20:40:50;;;;;;;27.50;14.43;;;-0.20;99.90;;;;;;8359851;28;20774;-70
2020/12/27 20:44:51;;;;;;;96.32;40.25;;;-0.10;99.90;;;;;;8360051;28;20044;-70
2020/12/27 20:48:51;;;;;;;38.58;18.73;;;-0.30;99.90;;;;;;8358528;28;20033;-70
2020/12/27 20:52:52;;;;;;;24.20;12.23;;;-0.40;99.90;;;;;;8356639;28;20044;-70
2020/12/27 20:56:52;;;;;;;38.58;18.98;;;-0.50;99.90;;;;;;8358129;28;20041;-71